createdAt,value
2017-12-01T00:01:35.221Z,18.63
2017-12-01T00:04:01.193Z,18.17
2017-12-01T00:06:27.191Z,16.80
2017-12-01T00:08:53.149Z,18.30
2017-12-01T00:11:19.102Z,18.77
2017-12-01T00:13:45.097Z,18.50
2017-12-01T00:16:11.043Z,19.27
2017-12-01T00:18:37.016Z,19.07
2017-12-01T00:21:03.014Z,20.03
2017-12-01T00:23:28.960Z,18.70
2017-12-01T00:25:54.950Z,19.23
2017-12-01T00:28:21.693Z,17.87
2017-12-01T00:30:48.376Z,17.73
2017-12-01T00:33:14.356Z,17.93
2017-12-01T00:35:40.553Z,19.10
2017-12-01T00:38:06.534Z,18.90
2017-12-01T00:40:33.225Z,17.23
2017-12-01T00:42:59.201Z,17.10
2017-12-01T00:45:25.135Z,18.97
2017-12-01T00:47:51.123Z,18.80
2017-12-01T00:50:17.898Z,18.33
2017-12-01T00:52:43.861Z,19.10
2017-12-01T00:55:09.845Z,18.60
2017-12-01T00:57:36.554Z,19.63
2017-12-01T01:00:02.510Z,17.97
2017-12-01T01:02:28.491Z,18.63
2017-12-01T01:04:54.437Z,19.33
2017-12-01T01:07:20.446Z,20.80
2017-12-01T01:09:47.130Z,20.40
2017-12-01T01:12:13.073Z,21.07
2017-12-01T01:14:39.049Z,18.87
2017-12-01T01:17:04.986Z,20.37
2017-12-01T01:19:30.989Z,19.60
2017-12-01T01:21:56.934Z,18.87
2017-12-01T01:24:22.965Z,18.10
2017-12-01T01:26:48.946Z,18.23
2017-12-01T01:29:14.917Z,20.30
2017-12-01T01:31:40.898Z,21.90
2017-12-01T01:34:06.866Z,19.63
2017-12-01T01:36:32.837Z,18.60
2017-12-01T01:38:58.793Z,17.93
2017-12-01T01:41:24.769Z,19.67
2017-12-01T01:43:51.477Z,19.20
2017-12-01T01:46:17.492Z,19.67
2017-12-01T01:48:43.618Z,19.33
2017-12-01T01:51:09.550Z,20.67
2017-12-01T01:53:35.493Z,19.20
2017-12-01T01:56:01.469Z,19.50
2017-12-01T01:58:27.488Z,17.80
2017-12-01T02:00:53.517Z,20.70
2017-12-01T02:03:19.583Z,19.97
2017-12-01T02:05:45.541Z,20.57
2017-12-01T02:08:11.516Z,20.50
2017-12-01T02:10:37.482Z,18.40
2017-12-01T02:13:03.441Z,18.90
2017-12-01T02:15:29.436Z,18.13
2017-12-01T02:17:55.409Z,18.87
2017-12-01T02:20:22.200Z,18.47
2017-12-01T02:22:48.164Z,19.33
2017-12-01T02:25:14.172Z,17.30
2017-12-01T02:27:40.174Z,20.90
2017-12-01T02:30:06.897Z,19.57
2017-12-01T02:32:32.894Z,17.63
2017-12-01T02:34:58.894Z,18.33
2017-12-01T02:37:25.681Z,18.97
2017-12-01T02:39:51.711Z,18.83
2017-12-01T02:42:17.673Z,19.97
2017-12-01T02:44:43.665Z,17.90
2017-12-01T02:47:10.415Z,18.40
2017-12-01T02:49:37.136Z,16.93
2017-12-01T02:52:03.148Z,19.63
2017-12-01T02:54:29.102Z,18.23
2017-12-01T02:56:55.092Z,19.30
2017-12-01T02:59:21.159Z,20.27
2017-12-01T03:01:47.146Z,17.40
2017-12-01T03:04:13.927Z,19.07
2017-12-01T03:06:39.964Z,18.60
2017-12-01T03:09:05.970Z,18.37
2017-12-01T03:11:32.678Z,18.00
2017-12-01T03:13:58.639Z,17.27
2017-12-01T03:16:24.640Z,18.83
2017-12-01T03:18:50.610Z,19.30
2017-12-01T03:21:16.609Z,17.60
2017-12-01T03:23:42.597Z,17.70
2017-12-01T03:26:08.576Z,20.37
2017-12-01T03:28:34.573Z,18.77
2017-12-01T03:31:00.513Z,19.63
2017-12-01T03:33:27.194Z,17.83
2017-12-01T03:35:53.196Z,21.00
2017-12-01T03:38:19.180Z,20.00
2017-12-01T03:40:45.206Z,19.43
2017-12-01T03:43:11.152Z,18.93
2017-12-01T03:45:37.153Z,17.67
2017-12-01T03:48:03.893Z,18.70
2017-12-01T03:50:29.941Z,18.90
2017-12-01T03:52:56.649Z,19.27
2017-12-01T03:55:22.624Z,19.37
2017-12-01T03:57:49.394Z,20.17
2017-12-01T04:00:16.120Z,19.10
2017-12-01T04:02:42.113Z,18.27
2017-12-01T04:05:08.081Z,19.87
2017-12-01T04:07:34.091Z,17.40
2017-12-01T04:10:00.031Z,17.93
2017-12-01T04:12:26.040Z,18.20
2017-12-01T04:14:52.061Z,17.97
2017-12-01T04:17:19.109Z,17.73
2017-12-01T04:19:45.972Z,17.30
2017-12-01T04:22:12.670Z,18.57
2017-12-01T04:24:38.674Z,17.80
2017-12-01T04:27:04.637Z,18.17
2017-12-01T04:29:30.620Z,18.53
2017-12-01T04:31:56.581Z,19.23
2017-12-01T04:34:23.416Z,17.43
2017-12-01T04:36:50.158Z,18.43
2017-12-01T04:39:16.136Z,17.63
2017-12-01T04:41:42.136Z,18.00
2017-12-01T04:44:08.164Z,18.20
2017-12-01T04:46:34.120Z,18.60
2017-12-01T04:49:00.864Z,18.80
2017-12-01T04:51:26.897Z,17.70
2017-12-01T04:53:53.648Z,19.03
2017-12-01T04:56:19.664Z,19.10
2017-12-01T04:58:45.665Z,17.03
2017-12-01T05:01:11.640Z,18.67
2017-12-01T05:03:37.600Z,16.97
2017-12-01T05:06:03.685Z,19.07
2017-12-01T05:08:29.668Z,17.33
2017-12-01T05:10:55.628Z,17.00
2017-12-01T05:13:21.665Z,20.10
2017-12-01T05:15:48.367Z,18.37
2017-12-01T05:18:14.324Z,22.80
2017-12-01T05:20:40.321Z,22.50
2017-12-01T05:23:06.408Z,22.70
2017-12-01T05:25:32.357Z,24.50
2017-12-01T05:27:59.101Z,22.83
2017-12-01T05:30:25.069Z,25.47
2017-12-01T05:32:51.084Z,21.70
2017-12-01T05:35:17.784Z,23.20
2017-12-01T05:37:43.728Z,19.57
2017-12-01T05:40:09.717Z,21.50
2017-12-01T05:42:36.467Z,22.97
2017-12-01T05:45:03.219Z,20.80
2017-12-01T05:47:29.969Z,24.27
2017-12-01T05:49:56.721Z,22.93
2017-12-01T05:52:23.519Z,23.10
2017-12-01T05:54:49.616Z,20.37
2017-12-01T05:57:15.605Z,20.80
2017-12-01T05:59:41.604Z,21.70
2017-12-01T06:02:08.422Z,20.43
2017-12-01T06:04:34.389Z,19.70
2017-12-01T06:07:01.098Z,19.90
2017-12-01T06:09:27.064Z,20.87
2017-12-01T06:11:53.042Z,19.77
2017-12-01T06:14:19.082Z,19.83
2017-12-01T06:16:45.049Z,19.53
2017-12-01T06:19:11.008Z,21.30
2017-12-01T06:21:37.684Z,21.60
2017-12-01T06:24:03.717Z,20.27
2017-12-01T06:26:29.723Z,20.80
2017-12-01T06:28:57.165Z,19.57
2017-12-01T06:31:23.380Z,22.33
2017-12-01T06:33:49.340Z,22.50
2017-12-01T06:36:15.340Z,22.77
2017-12-01T06:38:41.301Z,21.53
2017-12-01T06:41:07.274Z,19.20
2017-12-01T06:43:33.309Z,18.80
2017-12-01T06:45:59.280Z,18.37
2017-12-01T06:48:25.296Z,18.63
2017-12-01T06:50:52.005Z,19.93
2017-12-01T06:53:18.100Z,19.60
2017-12-01T06:55:44.779Z,19.83
2017-12-01T06:58:10.776Z,19.33
2017-12-01T07:00:36.741Z,21.00
2017-12-01T07:03:02.798Z,23.00
2017-12-01T07:05:28.832Z,22.80
2017-12-01T07:07:54.788Z,24.57
2017-12-01T07:10:20.787Z,23.40
2017-12-01T07:12:46.793Z,22.97
2017-12-01T07:15:12.776Z,20.17
2017-12-01T07:17:38.793Z,20.57
2017-12-01T07:20:04.838Z,21.83
2017-12-01T07:22:30.841Z,19.50
2017-12-01T07:24:57.573Z,19.93
2017-12-01T07:27:23.653Z,19.37
2017-12-01T07:29:50.421Z,20.60
2017-12-01T07:32:16.433Z,21.20
2017-12-01T07:34:43.152Z,19.70
2017-12-01T07:37:09.157Z,19.97
2017-12-01T07:39:35.108Z,18.87
2017-12-01T07:42:01.102Z,19.20
2017-12-01T07:44:33.961Z,17.83
2017-12-01T07:46:59.965Z,20.03
2017-12-01T07:49:25.925Z,20.60
2017-12-01T07:51:51.930Z,20.60
2017-12-01T07:54:17.889Z,18.03
2017-12-01T07:56:43.842Z,19.43
2017-12-01T07:59:09.845Z,19.80
2017-12-01T08:01:35.865Z,17.67
2017-12-01T08:04:01.873Z,19.17
2017-12-01T08:06:27.869Z,17.43
2017-12-01T08:08:53.884Z,20.03
2017-12-01T08:11:19.855Z,18.10
2017-12-01T08:13:45.820Z,20.40
2017-12-01T08:16:25.217Z,20.93
2017-12-01T08:18:51.180Z,20.37
2017-12-01T08:21:17.959Z,18.73
2017-12-01T08:23:56.467Z,19.37
2017-12-01T08:26:22.472Z,18.60
2017-12-01T08:28:48.452Z,21.73
2017-12-01T08:31:14.432Z,20.10
2017-12-01T08:33:40.413Z,20.33
2017-12-01T08:36:06.386Z,20.90
2017-12-01T08:38:33.143Z,20.07
2017-12-01T08:40:59.842Z,19.77
2017-12-01T08:43:25.828Z,18.50
2017-12-01T08:45:52.561Z,18.33
2017-12-01T08:48:18.546Z,18.03
2017-12-01T08:50:44.497Z,18.70
2017-12-01T08:53:10.501Z,19.13
2017-12-01T08:55:37.212Z,20.47
2017-12-01T08:58:03.156Z,19.37
2017-12-01T09:00:29.136Z,19.43
2017-12-01T09:02:55.177Z,18.63
2017-12-01T09:05:21.160Z,18.63
2017-12-01T09:07:47.144Z,16.60
2017-12-01T09:10:13.112Z,18.00
2017-12-01T09:12:39.061Z,17.67
2017-12-01T09:15:05.077Z,18.00
2017-12-01T09:17:31.037Z,18.90
2017-12-01T09:19:57.026Z,16.67
2017-12-01T09:22:23.054Z,17.97
2017-12-01T09:24:49.121Z,16.03
2017-12-01T09:27:15.123Z,17.73
2017-12-01T09:29:41.813Z,17.33
2017-12-01T09:32:07.833Z,17.90
2017-12-01T09:34:33.778Z,16.83
2017-12-01T09:36:59.777Z,18.43
2017-12-01T09:39:26.491Z,17.00
2017-12-01T09:41:52.486Z,17.00
2017-12-01T09:44:18.470Z,18.83
2017-12-01T09:46:44.419Z,18.50
2017-12-01T09:49:10.455Z,18.83
2017-12-01T09:51:36.418Z,18.60
2017-12-01T09:54:03.136Z,18.00
2017-12-01T09:56:29.153Z,18.27
2017-12-01T09:58:55.092Z,16.63
2017-12-01T10:01:21.098Z,18.07
2017-12-01T10:03:47.124Z,16.70
2017-12-01T10:06:13.070Z,18.73
2017-12-01T10:08:39.060Z,17.77
2017-12-01T10:11:05.059Z,18.33
2017-12-01T10:13:31.060Z,17.73
2017-12-01T10:15:57.025Z,17.40
2017-12-01T10:18:22.987Z,19.67
2017-12-01T10:20:48.973Z,17.97
2017-12-01T10:23:14.961Z,17.83
2017-12-01T10:25:40.909Z,17.20
2017-12-01T10:28:06.866Z,19.70
2017-12-01T10:30:33.777Z,18.40
2017-12-01T10:32:59.709Z,19.17
2017-12-01T10:35:25.652Z,19.33
2017-12-01T10:37:51.653Z,20.40
2017-12-01T10:40:17.589Z,19.50
2017-12-01T10:42:43.560Z,18.50
2017-12-01T10:45:09.500Z,18.87
2017-12-01T10:47:35.586Z,19.67
2017-12-01T10:50:01.545Z,19.23
2017-12-01T10:52:27.530Z,21.43
2017-12-01T10:54:53.599Z,19.97
2017-12-01T10:57:19.782Z,20.93
2017-12-01T10:59:45.816Z,20.33
2017-12-01T11:02:11.929Z,18.97
2017-12-01T11:04:37.948Z,22.67
2017-12-01T11:07:03.957Z,20.30
2017-12-01T11:09:29.915Z,19.70
2017-12-01T11:11:55.912Z,19.63
2017-12-01T11:14:21.918Z,17.97
2017-12-01T11:16:47.864Z,19.10
2017-12-01T11:19:13.852Z,19.73
2017-12-01T11:21:40.628Z,19.00
2017-12-01T11:24:06.632Z,19.13
2017-12-01T11:26:33.359Z,20.10
2017-12-01T11:28:59.312Z,18.40
2017-12-01T11:31:25.305Z,20.07
2017-12-01T11:33:51.284Z,19.60
2017-12-01T11:36:17.300Z,18.13
2017-12-01T11:38:43.337Z,17.73
2017-12-01T11:41:09.276Z,18.07
2017-12-01T11:43:35.248Z,18.50
2017-12-01T11:46:01.969Z,18.80
2017-12-01T11:48:27.981Z,19.43
2017-12-01T11:50:53.968Z,16.40
2017-12-01T11:53:20.715Z,15.70
2017-12-01T11:55:47.397Z,16.00
2017-12-01T11:58:13.372Z,14.73
2017-12-01T12:00:40.333Z,11.10
2017-12-01T12:03:06.357Z,12.37
2017-12-01T12:05:33.008Z,13.37
2017-12-01T12:07:58.995Z,13.73
2017-12-01T12:10:25.711Z,14.33
2017-12-01T12:12:51.743Z,15.90
2017-12-01T12:15:18.424Z,13.93
2017-12-01T12:17:44.353Z,17.73
2017-12-01T12:20:10.289Z,18.83
2017-12-01T12:22:36.264Z,18.33
2017-12-01T12:25:02.208Z,16.87
2017-12-01T12:27:28.161Z,18.80
2017-12-01T12:29:54.114Z,19.63
2017-12-01T12:32:20.136Z,19.07
2017-12-01T12:34:46.116Z,18.77
2017-12-01T12:37:12.821Z,19.37
2017-12-01T12:39:38.816Z,18.60
2017-12-01T12:42:05.496Z,18.83
2017-12-01T12:44:31.439Z,19.20
2017-12-01T12:46:57.437Z,19.10
2017-12-01T12:49:24.181Z,17.50
2017-12-01T12:51:50.200Z,17.20
2017-12-01T12:54:16.137Z,18.00
2017-12-01T12:56:42.143Z,17.40
2017-12-01T12:59:08.145Z,19.60
2017-12-01T13:01:34.899Z,17.77
2017-12-01T13:04:00.849Z,16.10
2017-12-01T13:06:26.852Z,18.87
2017-12-01T13:08:52.837Z,18.23
2017-12-01T13:11:18.780Z,17.70
2017-12-01T13:13:44.765Z,17.90
2017-12-01T13:16:11.464Z,18.37
2017-12-01T13:18:37.412Z,17.50
2017-12-01T13:21:03.389Z,19.13
2017-12-01T13:23:30.065Z,17.10
2017-12-01T13:25:56.037Z,17.70
2017-12-01T13:28:22.019Z,17.53
2017-12-01T13:30:47.928Z,17.60
2017-12-01T13:33:13.913Z,16.07
2017-12-01T13:35:39.855Z,16.57
2017-12-01T13:38:05.855Z,16.43
2017-12-01T13:40:32.592Z,16.27
2017-12-01T13:42:58.525Z,13.40
2017-12-01T13:45:24.506Z,10.30
2017-12-01T13:47:50.497Z,11.20
2017-12-01T13:50:16.501Z,10.70
2017-12-01T13:52:42.440Z,14.03
2017-12-01T13:55:08.404Z,15.77
2017-12-01T13:57:35.136Z,17.37
2017-12-01T14:00:01.073Z,16.50
2017-12-01T14:02:27.063Z,19.00
2017-12-01T14:04:53.074Z,17.37
2017-12-01T14:07:19.031Z,18.73
2017-12-01T14:09:45.013Z,18.40
2017-12-01T14:12:10.993Z,19.60
2017-12-01T14:14:37.780Z,21.90
2017-12-01T14:17:03.756Z,17.00
2017-12-01T14:19:29.785Z,17.70
2017-12-01T14:21:55.869Z,20.17
2017-12-01T14:24:22.632Z,18.03
2017-12-01T14:26:48.649Z,18.67
2017-12-01T14:29:15.328Z,19.47
2017-12-01T14:31:41.260Z,20.20
2017-12-01T14:34:07.249Z,18.37
2017-12-01T14:36:33.242Z,19.67
2017-12-01T14:38:59.233Z,20.47
2017-12-01T14:41:25.996Z,20.67
2017-12-01T14:43:52.742Z,19.20
2017-12-01T14:46:19.514Z,17.23
2017-12-01T14:48:46.250Z,17.07
2017-12-01T14:51:12.237Z,15.40
2017-12-01T14:53:38.221Z,16.97
2017-12-01T14:56:04.169Z,16.13
2017-12-01T14:58:30.192Z,12.50
2017-12-01T15:00:56.900Z,12.80
2017-12-01T15:03:22.904Z,13.37
2017-12-01T15:05:48.906Z,23.23
2017-12-01T15:08:14.849Z,12.60
2017-12-01T15:10:40.855Z,11.90
2017-12-01T15:13:06.845Z,12.70
2017-12-01T15:15:33.533Z,12.10
2017-12-01T15:17:59.581Z,12.10
2017-12-01T15:20:26.297Z,11.13
2017-12-01T15:22:52.273Z,11.10
2017-12-01T15:25:18.248Z,12.50
2017-12-01T15:27:44.976Z,11.50
2017-12-01T15:30:11.004Z,12.47
2017-12-01T15:32:37.037Z,14.00
2017-12-01T15:35:02.988Z,12.10
2017-12-01T15:37:28.944Z,12.77
2017-12-01T15:39:55.710Z,12.40
2017-12-01T15:42:22.450Z,11.13
2017-12-01T15:44:49.192Z,11.80
2017-12-01T15:47:15.216Z,12.13
2017-12-01T15:49:41.252Z,13.50
2017-12-01T15:52:07.236Z,13.03
2017-12-01T15:54:33.208Z,11.70
2017-12-01T15:56:59.169Z,12.53
2017-12-01T15:59:25.153Z,11.17
2017-12-01T16:01:51.937Z,12.80
2017-12-01T16:04:17.884Z,13.00
2017-12-01T16:06:43.844Z,11.97
2017-12-01T16:09:09.785Z,14.20
2017-12-01T16:11:36.596Z,13.20
2017-12-01T16:14:02.521Z,12.47
2017-12-01T16:16:28.473Z,13.10
2017-12-01T16:18:54.460Z,12.10
2017-12-01T16:21:21.260Z,9.23
2017-12-01T16:23:47.205Z,10.97
2017-12-01T16:26:13.208Z,11.50
2017-12-01T16:28:39.173Z,11.47
2017-12-01T16:31:05.124Z,13.70
2017-12-01T16:33:31.193Z,9.50
2017-12-01T16:35:57.890Z,10.87
2017-12-01T16:38:23.889Z,12.97
2017-12-01T16:40:49.858Z,13.87
2017-12-01T16:43:15.816Z,14.20
2017-12-01T16:45:41.804Z,13.30
2017-12-01T16:48:07.803Z,11.50
2017-12-01T16:50:34.541Z,13.10
2017-12-01T16:53:00.501Z,10.40
2017-12-01T16:55:27.212Z,10.83
2017-12-01T16:57:53.216Z,12.00
2017-12-01T17:00:19.157Z,12.73
2017-12-01T17:02:45.174Z,9.90
2017-12-01T17:05:11.121Z,9.70
2017-12-01T17:07:37.560Z,10.87
2017-12-01T17:10:03.537Z,12.13
2017-12-01T17:12:29.509Z,11.83
2017-12-01T17:14:55.496Z,11.70
2017-12-01T17:17:21.488Z,9.50
2017-12-01T17:19:48.208Z,9.07
2017-12-01T17:22:14.200Z,10.00
2017-12-01T17:24:40.140Z,11.13
2017-12-01T17:27:06.128Z,9.30
2017-12-01T17:29:32.129Z,9.00
2017-12-01T17:31:58.112Z,10.00
2017-12-01T17:34:24.125Z,11.43
2017-12-01T17:36:50.117Z,10.97
2017-12-01T17:39:16.130Z,10.80
2017-12-01T17:41:42.879Z,10.10
2017-12-01T17:44:08.894Z,8.50
2017-12-01T17:46:34.844Z,9.70
2017-12-01T17:49:00.840Z,9.60
2017-12-01T17:51:26.836Z,10.13
2017-12-01T17:53:53.580Z,10.33
2017-12-01T17:56:19.573Z,9.40
2017-12-01T17:58:45.543Z,9.80
2017-12-01T18:01:11.493Z,9.60
2017-12-01T18:03:38.271Z,9.73
2017-12-01T18:06:04.218Z,10.20
2017-12-01T18:08:30.159Z,9.87
2017-12-01T18:10:56.146Z,10.83
2017-12-01T18:13:22.098Z,10.67
2017-12-01T18:15:48.785Z,11.57
2017-12-01T18:18:14.769Z,10.90
2017-12-01T18:20:40.775Z,12.20
2017-12-01T18:23:06.789Z,13.57
2017-12-01T18:25:32.791Z,14.17
2017-12-01T18:27:59.540Z,14.30
2017-12-01T18:30:26.240Z,13.23
2017-12-01T18:32:52.237Z,12.13
2017-12-01T18:35:18.933Z,13.63
2017-12-01T18:37:44.908Z,13.20
2017-12-01T18:40:10.845Z,11.43
2017-12-01T18:42:37.624Z,11.17
2017-12-01T18:45:03.578Z,12.43
2017-12-01T18:47:29.541Z,12.00
2017-12-01T18:49:55.532Z,13.33
2017-12-01T18:52:21.555Z,13.87
2017-12-01T18:54:48.305Z,14.67
2017-12-01T18:57:14.989Z,12.00
2017-12-01T18:59:40.992Z,12.07
2017-12-01T19:02:07.689Z,12.80
2017-12-01T19:04:33.620Z,12.97
2017-12-01T19:06:59.600Z,13.20
2017-12-01T19:09:25.536Z,13.47
2017-12-01T19:11:51.568Z,13.60
2017-12-01T19:14:17.528Z,13.97
2017-12-01T19:16:44.257Z,12.57
2017-12-01T19:19:10.224Z,13.13
2017-12-01T19:21:36.225Z,13.70
2017-12-01T19:24:02.245Z,14.03
2017-12-01T19:26:28.277Z,14.87
2017-12-01T19:28:54.265Z,14.90
2017-12-01T19:31:20.977Z,15.10
2017-12-01T19:33:46.944Z,14.47
2017-12-01T19:36:12.939Z,15.50
2017-12-01T19:38:38.979Z,14.53
2017-12-01T19:41:04.933Z,11.93
2017-12-01T19:43:31.652Z,16.30
2017-12-01T19:45:57.620Z,12.77
2017-12-01T19:48:23.631Z,26.63
2017-12-01T19:50:49.653Z,24.00
2017-12-01T19:53:15.628Z,18.60
2017-12-01T19:55:41.597Z,14.30
2017-12-01T19:58:08.364Z,17.90
2017-12-01T20:00:34.361Z,16.37
2017-12-01T20:03:00.336Z,12.87
2017-12-01T20:05:26.336Z,14.40
2017-12-01T20:07:52.304Z,18.23
2017-12-01T20:10:18.257Z,16.70
2017-12-01T20:12:44.256Z,15.70
2017-12-01T20:15:10.272Z,19.30
2017-12-01T20:17:37.016Z,14.60
2017-12-01T20:20:03.041Z,12.70
2017-12-01T20:22:29.017Z,13.00
2017-12-01T20:24:55.735Z,14.30
2017-12-01T20:27:21.729Z,13.00
2017-12-01T20:29:47.744Z,15.23
2017-12-01T20:32:14.445Z,13.37
2017-12-01T20:34:40.535Z,13.30
2017-12-01T20:37:07.296Z,17.83
2017-12-01T20:39:33.991Z,14.93
2017-12-01T20:41:59.933Z,14.43
2017-12-01T20:44:25.956Z,13.73
2017-12-01T20:46:51.920Z,11.70
2017-12-01T20:49:17.861Z,13.20
2017-12-01T20:51:43.945Z,15.87
2017-12-01T20:54:09.959Z,25.00
2017-12-01T20:56:36.676Z,16.20
2017-12-01T20:59:02.621Z,15.77
2017-12-01T21:01:28.598Z,13.60
2017-12-01T21:03:55.312Z,16.87
2017-12-01T21:06:21.293Z,16.30
2017-12-01T21:08:47.285Z,16.53
2017-12-01T21:11:13.297Z,11.67
2017-12-01T21:13:39.269Z,19.00
2017-12-01T21:16:05.248Z,19.83
2017-12-01T21:18:31.228Z,18.57
2017-12-01T21:20:57.191Z,13.93
2017-12-01T21:23:23.955Z,13.03
2017-12-01T21:25:49.925Z,15.30
2017-12-01T21:28:15.876Z,15.10
2017-12-01T21:30:41.855Z,16.00
2017-12-01T21:33:08.604Z,17.40
2017-12-01T21:35:35.345Z,15.67
2017-12-01T21:38:01.335Z,16.23
2017-12-01T21:40:27.300Z,16.50
2017-12-01T21:42:53.312Z,18.20
2017-12-01T21:45:19.345Z,19.23
2017-12-01T21:47:45.312Z,16.27
2017-12-01T21:50:11.344Z,15.53
2017-12-01T21:52:37.404Z,15.60
2017-12-01T21:55:03.352Z,18.70
2017-12-01T21:57:30.072Z,15.80
2017-12-01T21:59:56.116Z,18.70
2017-12-01T22:02:22.117Z,14.97
2017-12-01T22:04:48.084Z,17.80
2017-12-01T22:07:14.057Z,16.00
2017-12-01T22:09:40.012Z,14.33
2017-12-01T22:12:05.965Z,12.77
2017-12-01T22:14:31.956Z,15.50
2017-12-01T22:16:57.924Z,14.40
2017-12-01T22:19:23.917Z,15.70
2017-12-01T22:21:50.752Z,15.73
2017-12-01T22:24:16.753Z,17.00
2017-12-01T22:26:42.724Z,14.10
2017-12-01T22:29:08.724Z,13.40
2017-12-01T22:31:34.684Z,14.50
2017-12-01T22:34:00.671Z,14.00
2017-12-01T22:36:27.377Z,15.17
2017-12-01T22:38:53.357Z,14.30
2017-12-01T22:41:20.119Z,16.53
2017-12-01T22:43:46.813Z,14.63
2017-12-01T22:46:12.773Z,14.50
2017-12-01T22:48:38.813Z,14.10
2017-12-01T22:51:04.783Z,13.03
2017-12-01T22:53:31.545Z,15.73
2017-12-01T22:55:58.232Z,12.57
2017-12-01T22:58:24.212Z,13.40
2017-12-01T23:00:50.208Z,15.60
2017-12-01T23:03:16.153Z,16.37
2017-12-01T23:05:42.112Z,14.23
2017-12-01T23:08:09.664Z,14.57
2017-12-01T23:10:35.627Z,13.90
2017-12-01T23:13:01.570Z,14.50
2017-12-01T23:15:28.300Z,14.13
2017-12-01T23:17:54.336Z,15.40
2017-12-01T23:20:20.357Z,17.63
2017-12-01T23:22:46.315Z,16.00
2017-12-01T23:25:12.284Z,16.73
2017-12-01T23:27:38.968Z,14.30
2017-12-01T23:30:04.960Z,12.80
2017-12-01T23:32:31.657Z,12.23
2017-12-01T23:34:57.642Z,14.63
2017-12-01T23:37:24.421Z,14.97
2017-12-01T23:39:50.420Z,12.40
2017-12-01T23:42:17.112Z,12.07
2017-12-01T23:44:43.096Z,14.80
2017-12-01T23:47:09.828Z,13.53
2017-12-01T23:49:35.817Z,11.80
2017-12-01T23:52:02.537Z,12.33
2017-12-01T23:54:28.492Z,11.40
2017-12-01T23:56:54.513Z,12.20
2017-12-01T23:59:20.509Z,10.63
